Mollusk, Virginia
Current Conditions -  °F | °C
As of 9:15 PM on Wednesday 17 Dec 2014 (Local Time) from KW75 Reporting Station
Clear Clear  
Wind Chill:   Ceiling: Unl
Heat Index:   Visibility: 10mi
Dew Point:   Wind: 3mph
Humidity: 76%   Direction: 330°NNW
Pressure: 30.03"   Gusts: NA
Location:  37.73°N, 76.54°W
Report Text: KW75 180215Z AUTO 33003KT 10SM CLR 06/02 A3003 RMK AO1 T00620023
Loading
Personal Weather Stations






























Interactive Weather Map New forecast layout! Learn more

10-Day Weather Forecast

Advertisements
Track Severe Weather on mobile